sensor_id;sensor_type;location;lat;lon;timestamp;P1;durP1;ratioP1;P2;durP2;ratioP2
5085;SDS011;4715;51.660;7.082;2023-05-07T00:01:13;1.80;;;1.70;;
5085;SDS011;4715;51.660;7.082;2023-05-07T00:03:37;2.23;;;2.07;;
5085;SDS011;4715;51.660;7.082;2023-05-07T00:05:59;1.80;;;1.70;;
5085;SDS011;4715;51.660;7.082;2023-05-07T00:08:23;1.80;;;1.70;;
5085;SDS011;4715;51.660;7.082;2023-05-07T00:10:45;1.93;;;1.83;;
5085;SDS011;4715;51.660;7.082;2023-05-07T00:13:09;1.90;;;1.80;;
5085;SDS011;4715;51.660;7.082;2023-05-07T00:15:30;2.03;;;1.93;;
5085;SDS011;4715;51.660;7.082;2023-05-07T00:17:55;2.10;;;2.00;;
5085;SDS011;4715;51.660;7.082;2023-05-07T00:20:21;1.93;;;1.83;;
5085;SDS011;4715;51.660;7.082;2023-05-07T00:22:42;2.20;;;2.10;;
5085;SDS011;4715;51.660;7.082;2023-05-07T00:25:05;2.40;;;2.13;;
5085;SDS011;4715;51.660;7.082;2023-05-07T00:27:27;1.87;;;1.77;;
5085;SDS011;4715;51.660;7.082;2023-05-07T00:29:50;1.77;;;1.67;;
5085;SDS011;4715;51.660;7.082;2023-05-07T00:32:13;2.20;;;2.10;;
5085;SDS011;4715;51.660;7.082;2023-05-07T00:34:35;2.10;;;2.00;;
5085;SDS011;4715;51.660;7.082;2023-05-07T00:36:58;1.87;;;1.77;;
5085;SDS011;4715;51.660;7.082;2023-05-07T00:39:21;1.90;;;1.80;;
5085;SDS011;4715;51.660;7.082;2023-05-07T00:41:46;2.57;;;2.47;;
5085;SDS011;4715;51.660;7.082;2023-05-07T00:44:08;3.17;;;2.97;;
5085;SDS011;4715;51.660;7.082;2023-05-07T00:46:30;2.47;;;2.37;;
5085;SDS011;4715;51.660;7.082;2023-05-07T00:48:54;2.40;;;2.30;;
5085;SDS011;4715;51.660;7.082;2023-05-07T00:51:16;2.40;;;2.30;;
5085;SDS011;4715;51.660;7.082;2023-05-07T00:53:43;3.20;;;3.00;;
5085;SDS011;4715;51.660;7.082;2023-05-07T00:56:06;2.70;;;2.50;;
5085;SDS011;4715;51.660;7.082;2023-05-07T00:58:28;2.73;;;2.53;;
5085;SDS011;4715;51.660;7.082;2023-05-07T01:00:50;3.10;;;2.90;;
5085;SDS011;4715;51.660;7.082;2023-05-07T01:03:14;3.50;;;3.30;;
5085;SDS011;4715;51.660;7.082;2023-05-07T01:05:37;3.60;;;3.40;;
5085;SDS011;4715;51.660;7.082;2023-05-07T01:08:00;2.97;;;2.77;;
5085;SDS011;4715;51.660;7.082;2023-05-07T01:10:27;2.87;;;2.77;;
5085;SDS011;4715;51.660;7.082;2023-05-07T01:12:50;3.43;;;2.90;;
5085;SDS011;4715;51.660;7.082;2023-05-07T01:15:14;3.00;;;2.80;;
5085;SDS011;4715;51.660;7.082;2023-05-07T01:17:38;2.60;;;2.40;;
5085;SDS011;4715;51.660;7.082;2023-05-07T01:20:04;3.07;;;2.90;;
5085;SDS011;4715;51.660;7.082;2023-05-07T01:22:31;2.70;;;2.50;;
5085;SDS011;4715;51.660;7.082;2023-05-07T01:24:56;2.13;;;2.03;;
5085;SDS011;4715;51.660;7.082;2023-05-07T01:27:21;3.07;;;2.87;;
5085;SDS011;4715;51.660;7.082;2023-05-07T01:29:43;2.17;;;2.07;;
5085;SDS011;4715;51.660;7.082;2023-05-07T01:32:06;2.63;;;2.53;;
5085;SDS011;4715;51.660;7.082;2023-05-07T01:34:31;2.80;;;2.70;;
5085;SDS011;4715;51.660;7.082;2023-05-07T01:36:55;2.67;;;2.57;;
5085;SDS011;4715;51.660;7.082;2023-05-07T01:39:20;3.43;;;3.17;;
5085;SDS011;4715;51.660;7.082;2023-05-07T01:41:43;3.00;;;2.80;;
5085;SDS011;4715;51.660;7.082;2023-05-07T01:44:05;2.60;;;2.50;;
5085;SDS011;4715;51.660;7.082;2023-05-07T01:46:27;2.70;;;2.60;;
5085;SDS011;4715;51.660;7.082;2023-05-07T01:48:49;2.63;;;2.53;;
5085;SDS011;4715;51.660;7.082;2023-05-07T01:51:11;3.23;;;3.03;;
5085;SDS011;4715;51.660;7.082;2023-05-07T01:53:35;3.13;;;2.97;;
5085;SDS011;4715;51.660;7.082;2023-05-07T01:55:58;3.40;;;3.20;;
5085;SDS011;4715;51.660;7.082;2023-05-07T01:58:20;2.87;;;2.67;;
5085;SDS011;4715;51.660;7.082;2023-05-07T02:00:42;4.30;;;4.00;;
5085;SDS011;4715;51.660;7.082;2023-05-07T02:03:04;4.43;;;4.13;;
5085;SDS011;4715;51.660;7.082;2023-05-07T02:05:26;4.10;;;3.80;;
5085;SDS011;4715;51.660;7.082;2023-05-07T02:07:47;4.20;;;3.90;;
5085;SDS011;4715;51.660;7.082;2023-05-07T02:10:09;3.53;;;3.33;;
5085;SDS011;4715;51.660;7.082;2023-05-07T02:12:32;4.00;;;3.73;;
5085;SDS011;4715;51.660;7.082;2023-05-07T02:14:54;4.27;;;3.97;;
5085;SDS011;4715;51.660;7.082;2023-05-07T02:17:16;3.73;;;3.43;;
5085;SDS011;4715;51.660;7.082;2023-05-07T02:19:38;3.90;;;3.60;;
5085;SDS011;4715;51.660;7.082;2023-05-07T02:22:00;3.50;;;3.30;;
5085;SDS011;4715;51.660;7.082;2023-05-07T02:24:21;2.77;;;2.67;;
5085;SDS011;4715;51.660;7.082;2023-05-07T02:26:43;3.00;;;2.80;;
5085;SDS011;4715;51.660;7.082;2023-05-07T02:29:06;3.13;;;3.03;;
5085;SDS011;4715;51.660;7.082;2023-05-07T02:31:28;2.80;;;2.70;;
5085;SDS011;4715;51.660;7.082;2023-05-07T02:33:50;4.83;;;4.50;;
5085;SDS011;4715;51.660;7.082;2023-05-07T02:36:12;2.67;;;2.57;;
5085;SDS011;4715;51.660;7.082;2023-05-07T02:38:33;3.20;;;3.00;;
5085;SDS011;4715;51.660;7.082;2023-05-07T02:40:55;2.73;;;2.63;;
5085;SDS011;4715;51.660;7.082;2023-05-07T02:43:17;3.43;;;3.13;;
5085;SDS011;4715;51.660;7.082;2023-05-07T02:45:40;3.07;;;2.77;;
5085;SDS011;4715;51.660;7.082;2023-05-07T02:48:03;2.77;;;2.67;;
5085;SDS011;4715;51.660;7.082;2023-05-07T02:50:26;2.03;;;1.93;;
5085;SDS011;4715;51.660;7.082;2023-05-07T02:52:48;2.73;;;2.53;;
5085;SDS011;4715;51.660;7.082;2023-05-07T02:55:10;2.97;;;2.73;;
5085;SDS011;4715;51.660;7.082;2023-05-07T02:57:31;2.50;;;2.33;;
5085;SDS011;4715;51.660;7.082;2023-05-07T02:59:53;2.53;;;2.43;;
5085;SDS011;4715;51.660;7.082;2023-05-07T03:02:16;3.27;;;3.00;;
5085;SDS011;4715;51.660;7.082;2023-05-07T03:04:39;2.60;;;2.50;;
5085;SDS011;4715;51.660;7.082;2023-05-07T03:07:01;2.40;;;2.30;;
5085;SDS011;4715;51.660;7.082;2023-05-07T03:09:23;2.77;;;2.67;;
5085;SDS011;4715;51.660;7.082;2023-05-07T03:11:44;2.70;;;2.60;;
5085;SDS011;4715;51.660;7.082;2023-05-07T03:14:06;2.70;;;2.60;;
5085;SDS011;4715;51.660;7.082;2023-05-07T03:16:28;3.10;;;2.90;;
5085;SDS011;4715;51.660;7.082;2023-05-07T03:18:51;2.77;;;2.67;;
5085;SDS011;4715;51.660;7.082;2023-05-07T03:21:13;3.03;;;2.77;;
5085;SDS011;4715;51.660;7.082;2023-05-07T03:23:34;2.57;;;2.47;;
5085;SDS011;4715;51.660;7.082;2023-05-07T03:25:56;2.80;;;2.60;;
5085;SDS011;4715;51.660;7.082;2023-05-07T03:28:18;2.50;;;2.40;;
5085;SDS011;4715;51.660;7.082;2023-05-07T03:30:40;3.27;;;2.70;;
5085;SDS011;4715;51.660;7.082;2023-05-07T03:33:02;2.70;;;2.60;;
5085;SDS011;4715;51.660;7.082;2023-05-07T03:35:26;2.93;;;2.80;;
5085;SDS011;4715;51.660;7.082;2023-05-07T03:37:47;2.20;;;2.10;;
5085;SDS011;4715;51.660;7.082;2023-05-07T03:40:09;2.40;;;2.20;;
5085;SDS011;4715;51.660;7.082;2023-05-07T03:42:32;3.10;;;2.90;;
5085;SDS011;4715;51.660;7.082;2023-05-07T03:44:54;2.63;;;2.43;;
5085;SDS011;4715;51.660;7.082;2023-05-07T03:47:16;2.37;;;2.23;;
5085;SDS011;4715;51.660;7.082;2023-05-07T03:49:37;3.70;;;3.40;;
5085;SDS011;4715;51.660;7.082;2023-05-07T03:52:00;3.17;;;2.97;;
5085;SDS011;4715;51.660;7.082;2023-05-07T03:54:22;2.67;;;2.47;;
5085;SDS011;4715;51.660;7.082;2023-05-07T03:56:44;3.07;;;2.87;;
5085;SDS011;4715;51.660;7.082;2023-05-07T03:59:06;3.20;;;3.00;;
5085;SDS011;4715;51.660;7.082;2023-05-07T04:01:28;2.37;;;2.27;;
5085;SDS011;4715;51.660;7.082;2023-05-07T04:03:49;2.70;;;2.50;;
5085;SDS011;4715;51.660;7.082;2023-05-07T04:06:11;2.97;;;2.77;;
5085;SDS011;4715;51.660;7.082;2023-05-07T04:08:34;2.53;;;2.43;;
5085;SDS011;4715;51.660;7.082;2023-05-07T04:10:56;2.60;;;2.50;;
5085;SDS011;4715;51.660;7.082;2023-05-07T04:13:18;3.43;;;3.23;;
5085;SDS011;4715;51.660;7.082;2023-05-07T04:15:40;3.10;;;2.83;;
5085;SDS011;4715;51.660;7.082;2023-05-07T04:18:02;2.63;;;2.43;;
5085;SDS011;4715;51.660;7.082;2023-05-07T04:20:24;2.73;;;2.50;;
5085;SDS011;4715;51.660;7.082;2023-05-07T04:22:46;2.53;;;2.43;;
5085;SDS011;4715;51.660;7.082;2023-05-07T04:25:09;2.67;;;2.57;;
5085;SDS011;4715;51.660;7.082;2023-05-07T04:27:31;2.70;;;2.60;;
5085;SDS011;4715;51.660;7.082;2023-05-07T04:29:53;2.90;;;2.70;;
5085;SDS011;4715;51.660;7.082;2023-05-07T04:32:16;2.60;;;2.50;;
5085;SDS011;4715;51.660;7.082;2023-05-07T04:34:37;3.40;;;3.20;;
5085;SDS011;4715;51.660;7.082;2023-05-07T04:36:59;4.00;;;3.80;;
5085;SDS011;4715;51.660;7.082;2023-05-07T04:39:21;3.50;;;3.30;;
5085;SDS011;4715;51.660;7.082;2023-05-07T04:41:44;3.50;;;3.30;;
5085;SDS011;4715;51.660;7.082;2023-05-07T04:44:06;3.30;;;3.10;;
5085;SDS011;4715;51.660;7.082;2023-05-07T04:46:29;3.90;;;3.70;;
5085;SDS011;4715;51.660;7.082;2023-05-07T04:48:51;2.97;;;2.77;;
5085;SDS011;4715;51.660;7.082;2023-05-07T04:51:12;2.77;;;2.67;;
5085;SDS011;4715;51.660;7.082;2023-05-07T04:53:34;3.63;;;3.43;;
5085;SDS011;4715;51.660;7.082;2023-05-07T04:55:56;4.00;;;3.80;;
5085;SDS011;4715;51.660;7.082;2023-05-07T04:58:20;4.20;;;3.50;;
5085;SDS011;4715;51.660;7.082;2023-05-07T05:00:41;3.90;;;3.60;;
5085;SDS011;4715;51.660;7.082;2023-05-07T05:03:03;3.77;;;3.57;;
5085;SDS011;4715;51.660;7.082;2023-05-07T05:05:25;3.37;;;3.17;;
5085;SDS011;4715;51.660;7.082;2023-05-07T05:07:47;3.10;;;2.90;;
5085;SDS011;4715;51.660;7.082;2023-05-07T05:10:09;3.97;;;3.77;;
5085;SDS011;4715;51.660;7.082;2023-05-07T05:12:30;3.47;;;3.30;;
5085;SDS011;4715;51.660;7.082;2023-05-07T05:14:54;4.30;;;4.00;;
5085;SDS011;4715;51.660;7.082;2023-05-07T05:17:15;4.17;;;3.97;;
5085;SDS011;4715;51.660;7.082;2023-05-07T05:19:37;4.60;;;4.30;;
5085;SDS011;4715;51.660;7.082;2023-05-07T05:21:59;3.60;;;3.37;;
5085;SDS011;4715;51.660;7.082;2023-05-07T05:24:23;4.40;;;4.10;;
5085;SDS011;4715;51.660;7.082;2023-05-07T05:26:45;3.97;;;3.77;;
5085;SDS011;4715;51.660;7.082;2023-05-07T05:29:07;3.50;;;3.30;;
5085;SDS011;4715;51.660;7.082;2023-05-07T05:31:30;3.20;;;3.00;;
5085;SDS011;4715;51.660;7.082;2023-05-07T05:33:53;2.83;;;2.73;;
5085;SDS011;4715;51.660;7.082;2023-05-07T05:36:15;2.80;;;2.70;;
5085;SDS011;4715;51.660;7.082;2023-05-07T05:38:37;2.87;;;2.67;;
5085;SDS011;4715;51.660;7.082;2023-05-07T05:41:05;2.30;;;2.20;;
5085;SDS011;4715;51.660;7.082;2023-05-07T05:43:27;2.13;;;2.03;;
5085;SDS011;4715;51.660;7.082;2023-05-07T05:45:49;2.50;;;2.40;;
5085;SDS011;4715;51.660;7.082;2023-05-07T05:48:12;2.20;;;2.10;;
5085;SDS011;4715;51.660;7.082;2023-05-07T05:50:34;2.77;;;2.60;;
5085;SDS011;4715;51.660;7.082;2023-05-07T05:52:56;2.80;;;2.60;;
5085;SDS011;4715;51.660;7.082;2023-05-07T05:55:18;3.03;;;2.83;;
5085;SDS011;4715;51.660;7.082;2023-05-07T05:57:41;2.50;;;2.40;;
5085;SDS011;4715;51.660;7.082;2023-05-07T06:00:04;2.93;;;2.73;;
5085;SDS011;4715;51.660;7.082;2023-05-07T06:02:26;3.27;;;2.97;;
5085;SDS011;4715;51.660;7.082;2023-05-07T06:04:49;2.90;;;2.77;;
5085;SDS011;4715;51.660;7.082;2023-05-07T06:07:11;3.37;;;3.20;;
5085;SDS011;4715;51.660;7.082;2023-05-07T06:09:33;3.33;;;3.03;;
5085;SDS011;4715;51.660;7.082;2023-05-07T06:11:55;3.43;;;3.23;;
5085;SDS011;4715;51.660;7.082;2023-05-07T06:14:16;3.70;;;3.50;;
5085;SDS011;4715;51.660;7.082;2023-05-07T06:16:38;2.90;;;2.80;;
5085;SDS011;4715;51.660;7.082;2023-05-07T06:19:00;4.03;;;3.63;;
5085;SDS011;4715;51.660;7.082;2023-05-07T06:21:24;3.30;;;3.10;;
5085;SDS011;4715;51.660;7.082;2023-05-07T06:23:45;3.37;;;3.17;;
5085;SDS011;4715;51.660;7.082;2023-05-07T06:26:07;2.73;;;2.63;;
5085;SDS011;4715;51.660;7.082;2023-05-07T06:28:29;3.30;;;3.00;;
5085;SDS011;4715;51.660;7.082;2023-05-07T06:30:55;2.87;;;2.77;;
5085;SDS011;4715;51.660;7.082;2023-05-07T06:33:31;2.50;;;2.40;;
5085;SDS011;4715;51.660;7.082;2023-05-07T06:35:53;2.70;;;2.60;;
5085;SDS011;4715;51.660;7.082;2023-05-07T06:38:16;3.50;;;3.20;;
5085;SDS011;4715;51.660;7.082;2023-05-07T06:40:38;2.60;;;2.43;;
5085;SDS011;4715;51.660;7.082;2023-05-07T06:43:00;3.17;;;2.07;;
5085;SDS011;4715;51.660;7.082;2023-05-07T06:45:21;2.60;;;2.50;;
5085;SDS011;4715;51.660;7.082;2023-05-07T06:47:43;2.50;;;2.40;;
5085;SDS011;4715;51.660;7.082;2023-05-07T06:50:06;3.13;;;2.93;;
5085;SDS011;4715;51.660;7.082;2023-05-07T06:52:29;3.17;;;2.97;;
5085;SDS011;4715;51.660;7.082;2023-05-07T06:54:52;2.67;;;2.57;;
5085;SDS011;4715;51.660;7.082;2023-05-07T06:57:14;3.63;;;3.30;;
5085;SDS011;4715;51.660;7.082;2023-05-07T06:59:36;3.80;;;3.60;;
5085;SDS011;4715;51.660;7.082;2023-05-07T07:01:58;3.70;;;3.40;;
5085;SDS011;4715;51.660;7.082;2023-05-07T07:04:20;4.00;;;3.70;;
5085;SDS011;4715;51.660;7.082;2023-05-07T07:06:43;4.00;;;3.80;;
5085;SDS011;4715;51.660;7.082;2023-05-07T07:09:04;4.00;;;3.70;;
5085;SDS011;4715;51.660;7.082;2023-05-07T07:11:28;4.47;;;4.17;;
5085;SDS011;4715;51.660;7.082;2023-05-07T07:13:50;4.20;;;3.90;;
5085;SDS011;4715;51.660;7.082;2023-05-07T07:16:14;4.20;;;3.80;;
5085;SDS011;4715;51.660;7.082;2023-05-07T07:18:36;5.00;;;3.23;;
5085;SDS011;4715;51.660;7.082;2023-05-07T07:20:57;3.90;;;3.63;;
5085;SDS011;4715;51.660;7.082;2023-05-07T07:23:20;4.00;;;3.70;;
5085;SDS011;4715;51.660;7.082;2023-05-07T07:25:42;4.10;;;3.80;;
5085;SDS011;4715;51.660;7.082;2023-05-07T07:28:05;3.50;;;3.30;;
5085;SDS011;4715;51.660;7.082;2023-05-07T07:30:27;4.00;;;3.70;;
5085;SDS011;4715;51.660;7.082;2023-05-07T07:32:48;4.20;;;3.90;;
5085;SDS011;4715;51.660;7.082;2023-05-07T07:35:11;4.47;;;4.17;;
5085;SDS011;4715;51.660;7.082;2023-05-07T07:37:33;4.17;;;3.93;;
5085;SDS011;4715;51.660;7.082;2023-05-07T07:39:55;6.30;;;3.83;;
5085;SDS011;4715;51.660;7.082;2023-05-07T07:42:17;4.37;;;4.07;;
5085;SDS011;4715;51.660;7.082;2023-05-07T07:44:40;5.27;;;4.97;;
5085;SDS011;4715;51.660;7.082;2023-05-07T07:47:02;3.90;;;3.63;;
5085;SDS011;4715;51.660;7.082;2023-05-07T07:49:24;5.77;;;5.27;;
5085;SDS011;4715;51.660;7.082;2023-05-07T07:51:46;4.50;;;4.10;;
5085;SDS011;4715;51.660;7.082;2023-05-07T07:54:08;8.13;;;4.80;;
5085;SDS011;4715;51.660;7.082;2023-05-07T07:56:30;4.27;;;3.97;;
5085;SDS011;4715;51.660;7.082;2023-05-07T07:58:53;4.60;;;4.30;;
5085;SDS011;4715;51.660;7.082;2023-05-07T08:01:16;3.53;;;3.33;;
5085;SDS011;4715;51.660;7.082;2023-05-07T08:03:38;5.00;;;4.60;;
5085;SDS011;4715;51.660;7.082;2023-05-07T08:06:00;6.33;;;5.77;;
5085;SDS011;4715;51.660;7.082;2023-05-07T08:08:21;5.60;;;5.20;;
5085;SDS011;4715;51.660;7.082;2023-05-07T08:10:43;7.53;;;6.83;;
5085;SDS011;4715;51.660;7.082;2023-05-07T08:13:05;5.23;;;4.87;;
5085;SDS011;4715;51.660;7.082;2023-05-07T08:15:29;5.30;;;4.90;;
5085;SDS011;4715;51.660;7.082;2023-05-07T08:17:52;5.03;;;4.70;;
5085;SDS011;4715;51.660;7.082;2023-05-07T08:20:17;6.73;;;5.23;;
5085;SDS011;4715;51.660;7.082;2023-05-07T08:22:39;4.60;;;4.30;;
5085;SDS011;4715;51.660;7.082;2023-05-07T08:25:01;4.50;;;4.20;;
5085;SDS011;4715;51.660;7.082;2023-05-07T08:27:23;4.20;;;4.00;;
5085;SDS011;4715;51.660;7.082;2023-05-07T08:29:45;4.87;;;4.50;;
5085;SDS011;4715;51.660;7.082;2023-05-07T08:32:08;5.10;;;4.70;;
5085;SDS011;4715;51.660;7.082;2023-05-07T08:34:31;4.87;;;4.47;;
5085;SDS011;4715;51.660;7.082;2023-05-07T08:36:54;3.87;;;3.67;;
5085;SDS011;4715;51.660;7.082;2023-05-07T08:39:16;4.40;;;4.10;;
5085;SDS011;4715;51.660;7.082;2023-05-07T08:41:38;5.30;;;4.90;;
5085;SDS011;4715;51.660;7.082;2023-05-07T08:44:00;5.50;;;5.10;;
5085;SDS011;4715;51.660;7.082;2023-05-07T08:46:24;5.00;;;4.70;;
5085;SDS011;4715;51.660;7.082;2023-05-07T08:48:48;5.20;;;4.80;;
5085;SDS011;4715;51.660;7.082;2023-05-07T08:51:13;5.50;;;5.10;;
5085;SDS011;4715;51.660;7.082;2023-05-07T08:53:37;4.57;;;4.27;;
5085;SDS011;4715;51.660;7.082;2023-05-07T08:56:02;5.20;;;4.90;;
5085;SDS011;4715;51.660;7.082;2023-05-07T08:58:24;4.93;;;4.60;;
5085;SDS011;4715;51.660;7.082;2023-05-07T09:00:46;4.40;;;4.10;;
5085;SDS011;4715;51.660;7.082;2023-05-07T09:03:08;3.80;;;3.60;;
5085;SDS011;4715;51.660;7.082;2023-05-07T09:05:32;4.03;;;3.80;;
5085;SDS011;4715;51.660;7.082;2023-05-07T09:07:55;4.23;;;4.03;;
5085;SDS011;4715;51.660;7.082;2023-05-07T09:10:20;3.73;;;3.53;;
5085;SDS011;4715;51.660;7.082;2023-05-07T09:12:42;3.73;;;3.53;;
5085;SDS011;4715;51.660;7.082;2023-05-07T09:15:05;4.80;;;4.40;;
5085;SDS011;4715;51.660;7.082;2023-05-07T09:17:28;5.50;;;5.10;;
5085;SDS011;4715;51.660;7.082;2023-05-07T09:19:50;4.13;;;3.90;;
5085;SDS011;4715;51.660;7.082;2023-05-07T09:22:13;4.50;;;4.20;;
5085;SDS011;4715;51.660;7.082;2023-05-07T09:24:36;4.57;;;4.27;;
5085;SDS011;4715;51.660;7.082;2023-05-07T09:26:59;3.90;;;3.70;;
5085;SDS011;4715;51.660;7.082;2023-05-07T09:29:21;5.27;;;4.87;;
5085;SDS011;4715;51.660;7.082;2023-05-07T09:31:43;5.70;;;5.30;;
5085;SDS011;4715;51.660;7.082;2023-05-07T09:34:04;5.47;;;5.00;;
5085;SDS011;4715;51.660;7.082;2023-05-07T09:36:26;5.17;;;4.87;;
5085;SDS011;4715;51.660;7.082;2023-05-07T09:38:48;4.77;;;4.50;;
5085;SDS011;4715;51.660;7.082;2023-05-07T09:41:13;4.27;;;4.07;;
5085;SDS011;4715;51.660;7.082;2023-05-07T09:43:36;4.83;;;4.53;;
5085;SDS011;4715;51.660;7.082;2023-05-07T09:45:58;4.57;;;4.17;;
5085;SDS011;4715;51.660;7.082;2023-05-07T09:48:21;9.37;;;5.07;;
5085;SDS011;4715;51.660;7.082;2023-05-07T09:50:46;3.73;;;3.53;;
5085;SDS011;4715;51.660;7.082;2023-05-07T09:53:10;4.03;;;3.70;;
5085;SDS011;4715;51.660;7.082;2023-05-07T09:55:34;5.03;;;4.40;;
5085;SDS011;4715;51.660;7.082;2023-05-07T09:57:58;4.07;;;3.77;;
5085;SDS011;4715;51.660;7.082;2023-05-07T10:00:22;3.90;;;3.67;;
5085;SDS011;4715;51.660;7.082;2023-05-07T10:02:45;4.10;;;3.80;;
5085;SDS011;4715;51.660;7.082;2023-05-07T10:05:09;3.67;;;3.47;;
5085;SDS011;4715;51.660;7.082;2023-05-07T10:07:31;4.50;;;4.20;;
5085;SDS011;4715;51.660;7.082;2023-05-07T10:09:53;4.43;;;4.10;;
5085;SDS011;4715;51.660;7.082;2023-05-07T10:12:15;4.87;;;4.57;;
5085;SDS011;4715;51.660;7.082;2023-05-07T10:14:39;4.73;;;4.43;;
5085;SDS011;4715;51.660;7.082;2023-05-07T10:17:03;3.60;;;3.40;;
5085;SDS011;4715;51.660;7.082;2023-05-07T10:19:27;4.27;;;4.07;;
5085;SDS011;4715;51.660;7.082;2023-05-07T10:21:51;4.37;;;3.80;;
5085;SDS011;4715;51.660;7.082;2023-05-07T10:24:19;3.70;;;3.50;;
5085;SDS011;4715;51.660;7.082;2023-05-07T10:26:43;4.13;;;3.40;;
5085;SDS011;4715;51.660;7.082;2023-05-07T10:29:11;3.90;;;3.70;;
5085;SDS011;4715;51.660;7.082;2023-05-07T10:31:50;3.60;;;3.33;;
5085;SDS011;4715;51.660;7.082;2023-05-07T10:34:22;3.90;;;3.70;;
5085;SDS011;4715;51.660;7.082;2023-05-07T10:36:46;3.83;;;3.63;;
5085;SDS011;4715;51.660;7.082;2023-05-07T10:39:09;3.70;;;3.50;;
5085;SDS011;4715;51.660;7.082;2023-05-07T10:41:32;3.30;;;3.10;;
5085;SDS011;4715;51.660;7.082;2023-05-07T10:43:53;3.40;;;3.20;;
5085;SDS011;4715;51.660;7.082;2023-05-07T10:46:16;5.90;;;2.90;;
5085;SDS011;4715;51.660;7.082;2023-05-07T10:51:31;4.87;;;4.50;;
5085;SDS011;4715;51.660;7.082;2023-05-07T10:56:40;3.80;;;3.30;;
5085;SDS011;4715;51.660;7.082;2023-05-07T11:02:02;3.70;;;3.40;;
5085;SDS011;4715;51.660;7.082;2023-05-07T11:04:27;2.90;;;2.70;;
5085;SDS011;4715;51.660;7.082;2023-05-07T11:09:54;3.70;;;3.40;;
5085;SDS011;4715;51.660;7.082;2023-05-07T11:12:32;2.83;;;2.70;;
5085;SDS011;4715;51.660;7.082;2023-05-07T11:15:10;3.10;;;2.90;;
5085;SDS011;4715;51.660;7.082;2023-05-07T11:17:32;2.83;;;2.70;;
5085;SDS011;4715;51.660;7.082;2023-05-07T11:19:56;3.03;;;2.83;;
5085;SDS011;4715;51.660;7.082;2023-05-07T11:22:37;2.47;;;2.33;;
5085;SDS011;4715;51.660;7.082;2023-05-07T11:25:02;2.90;;;2.70;;
5085;SDS011;4715;51.660;7.082;2023-05-07T11:27:25;2.60;;;2.50;;
5085;SDS011;4715;51.660;7.082;2023-05-07T11:29:50;2.80;;;2.60;;
5085;SDS011;4715;51.660;7.082;2023-05-07T11:32:12;2.37;;;2.27;;
5085;SDS011;4715;51.660;7.082;2023-05-07T11:34:34;2.73;;;2.63;;
5085;SDS011;4715;51.660;7.082;2023-05-07T11:36:58;3.70;;;3.37;;
5085;SDS011;4715;51.660;7.082;2023-05-07T11:39:28;2.60;;;2.40;;
5085;SDS011;4715;51.660;7.082;2023-05-07T11:41:51;2.83;;;2.63;;
5085;SDS011;4715;51.660;7.082;2023-05-07T11:44:13;3.20;;;3.00;;
5085;SDS011;4715;51.660;7.082;2023-05-07T11:46:35;3.00;;;2.80;;
5085;SDS011;4715;51.660;7.082;2023-05-07T11:48:56;3.17;;;2.97;;
5085;SDS011;4715;51.660;7.082;2023-05-07T11:51:19;3.30;;;3.10;;
5085;SDS011;4715;51.660;7.082;2023-05-07T11:53:43;3.47;;;3.17;;
5085;SDS011;4715;51.660;7.082;2023-05-07T11:56:06;3.30;;;3.00;;
5085;SDS011;4715;51.660;7.082;2023-05-07T11:58:28;3.10;;;3.00;;
5085;SDS011;4715;51.660;7.082;2023-05-07T12:00:50;3.00;;;2.80;;
5085;SDS011;4715;51.660;7.082;2023-05-07T12:03:12;3.17;;;2.90;;
5085;SDS011;4715;51.660;7.082;2023-05-07T12:05:34;3.23;;;3.03;;
5085;SDS011;4715;51.660;7.082;2023-05-07T12:07:57;2.87;;;2.67;;
5085;SDS011;4715;51.660;7.082;2023-05-07T12:10:20;3.27;;;2.97;;
5085;SDS011;4715;51.660;7.082;2023-05-07T12:12:45;3.93;;;2.97;;
5085;SDS011;4715;51.660;7.082;2023-05-07T12:15:07;3.27;;;3.10;;
5085;SDS011;4715;51.660;7.082;2023-05-07T12:17:30;2.53;;;2.43;;
5085;SDS011;4715;51.660;7.082;2023-05-07T12:19:52;3.47;;;3.27;;
5085;SDS011;4715;51.660;7.082;2023-05-07T12:22:14;3.63;;;3.33;;
5085;SDS011;4715;51.660;7.082;2023-05-07T12:24:45;4.00;;;3.70;;
5085;SDS011;4715;51.660;7.082;2023-05-07T12:27:10;3.50;;;3.27;;
5085;SDS011;4715;51.660;7.082;2023-05-07T12:29:32;3.40;;;3.20;;
5085;SDS011;4715;51.660;7.082;2023-05-07T12:31:53;4.67;;;4.27;;
5085;SDS011;4715;51.660;7.082;2023-05-07T12:34:15;3.57;;;3.37;;
5085;SDS011;4715;51.660;7.082;2023-05-07T12:36:37;4.80;;;3.80;;
5085;SDS011;4715;51.660;7.082;2023-05-07T12:38:59;4.40;;;4.00;;
5085;SDS011;4715;51.660;7.082;2023-05-07T12:41:22;3.90;;;3.70;;
5085;SDS011;4715;51.660;7.082;2023-05-07T12:43:48;4.93;;;4.53;;
5085;SDS011;4715;51.660;7.082;2023-05-07T12:46:10;4.53;;;4.23;;
5085;SDS011;4715;51.660;7.082;2023-05-07T12:48:33;4.40;;;4.13;;
5085;SDS011;4715;51.660;7.082;2023-05-07T12:50:58;5.00;;;4.60;;
5085;SDS011;4715;51.660;7.082;2023-05-07T12:53:22;5.03;;;4.63;;
5085;SDS011;4715;51.660;7.082;2023-05-07T12:55:45;4.30;;;4.00;;
5085;SDS011;4715;51.660;7.082;2023-05-07T12:58:08;4.00;;;3.80;;
5085;SDS011;4715;51.660;7.082;2023-05-07T13:00:37;4.20;;;3.97;;
5085;SDS011;4715;51.660;7.082;2023-05-07T13:03:00;3.30;;;3.10;;
5085;SDS011;4715;51.660;7.082;2023-05-07T13:05:21;6.27;;;4.60;;
5085;SDS011;4715;51.660;7.082;2023-05-07T13:07:52;4.30;;;4.10;;
5085;SDS011;4715;51.660;7.082;2023-05-07T13:10:14;4.40;;;4.00;;
5085;SDS011;4715;51.660;7.082;2023-05-07T13:12:36;4.63;;;4.33;;
5085;SDS011;4715;51.660;7.082;2023-05-07T13:14:57;4.50;;;4.20;;
5085;SDS011;4715;51.660;7.082;2023-05-07T13:17:21;4.87;;;4.47;;
5085;SDS011;4715;51.660;7.082;2023-05-07T13:19:42;3.90;;;3.60;;
5085;SDS011;4715;51.660;7.082;2023-05-07T13:22:04;4.30;;;4.00;;
5085;SDS011;4715;51.660;7.082;2023-05-07T13:24:26;4.00;;;3.70;;
5085;SDS011;4715;51.660;7.082;2023-05-07T13:26:48;3.87;;;3.67;;
5085;SDS011;4715;51.660;7.082;2023-05-07T13:29:10;3.60;;;3.40;;
5085;SDS011;4715;51.660;7.082;2023-05-07T13:31:32;3.90;;;3.70;;
5085;SDS011;4715;51.660;7.082;2023-05-07T13:33:55;3.87;;;3.67;;
5085;SDS011;4715;51.660;7.082;2023-05-07T13:36:17;3.83;;;3.53;;
5085;SDS011;4715;51.660;7.082;2023-05-07T13:38:39;4.70;;;4.30;;
5085;SDS011;4715;51.660;7.082;2023-05-07T13:41:01;5.03;;;4.73;;
5085;SDS011;4715;51.660;7.082;2023-05-07T13:43:24;4.50;;;4.20;;
5085;SDS011;4715;51.660;7.082;2023-05-07T13:45:46;3.87;;;3.67;;
5085;SDS011;4715;51.660;7.082;2023-05-07T13:48:08;4.30;;;4.00;;
5085;SDS011;4715;51.660;7.082;2023-05-07T13:50:31;4.00;;;3.70;;
5085;SDS011;4715;51.660;7.082;2023-05-07T13:52:53;4.10;;;3.80;;
5085;SDS011;4715;51.660;7.082;2023-05-07T13:55:15;4.67;;;4.13;;
5085;SDS011;4715;51.660;7.082;2023-05-07T13:57:37;3.57;;;3.27;;
5085;SDS011;4715;51.660;7.082;2023-05-07T13:59:59;4.40;;;4.10;;
5085;SDS011;4715;51.660;7.082;2023-05-07T14:02:21;3.60;;;3.40;;
5085;SDS011;4715;51.660;7.082;2023-05-07T14:04:43;3.70;;;3.50;;
5085;SDS011;4715;51.660;7.082;2023-05-07T14:07:06;3.30;;;3.10;;
5085;SDS011;4715;51.660;7.082;2023-05-07T14:09:28;3.47;;;3.27;;
5085;SDS011;4715;51.660;7.082;2023-05-07T14:11:50;4.00;;;3.70;;
5085;SDS011;4715;51.660;7.082;2023-05-07T14:14:12;3.83;;;3.50;;
5085;SDS011;4715;51.660;7.082;2023-05-07T14:16:34;3.37;;;3.07;;
5085;SDS011;4715;51.660;7.082;2023-05-07T14:18:56;3.83;;;3.30;;
5085;SDS011;4715;51.660;7.082;2023-05-07T14:21:18;3.50;;;3.30;;
5085;SDS011;4715;51.660;7.082;2023-05-07T14:23:49;3.73;;;3.50;;
5085;SDS011;4715;51.660;7.082;2023-05-07T14:26:11;4.07;;;3.83;;
5085;SDS011;4715;51.660;7.082;2023-05-07T14:28:33;4.53;;;4.20;;
5085;SDS011;4715;51.660;7.082;2023-05-07T14:30:55;4.50;;;4.10;;
5085;SDS011;4715;51.660;7.082;2023-05-07T14:33:17;4.30;;;4.00;;
5085;SDS011;4715;51.660;7.082;2023-05-07T14:35:39;4.13;;;3.83;;
5085;SDS011;4715;51.660;7.082;2023-05-07T14:38:01;4.20;;;3.97;;
5085;SDS011;4715;51.660;7.082;2023-05-07T14:40:24;4.20;;;4.00;;
5085;SDS011;4715;51.660;7.082;2023-05-07T14:42:46;4.13;;;3.83;;
5085;SDS011;4715;51.660;7.082;2023-05-07T14:45:08;4.07;;;3.80;;
5085;SDS011;4715;51.660;7.082;2023-05-07T14:47:31;3.47;;;3.27;;
5085;SDS011;4715;51.660;7.082;2023-05-07T14:49:53;3.10;;;3.00;;
5085;SDS011;4715;51.660;7.082;2023-05-07T14:52:16;4.27;;;3.97;;
5085;SDS011;4715;51.660;7.082;2023-05-07T14:54:40;3.87;;;3.67;;
5085;SDS011;4715;51.660;7.082;2023-05-07T14:57:04;5.53;;;3.97;;
5085;SDS011;4715;51.660;7.082;2023-05-07T14:59:26;4.07;;;3.77;;